sensor_id;sensor_type;location;lat;lon;timestamp;P1;durP1;ratioP1;P2;durP2;ratioP2
25922;SDS011;13725;51.170;4.442;2023-04-15T00:00:38;9.13;;;4.10;;
25922;SDS011;13725;51.170;4.442;2023-04-15T00:03:04;10.85;;;4.43;;
25922;SDS011;13725;51.170;4.442;2023-04-15T00:05:30;11.95;;;5.13;;
25922;SDS011;13725;51.170;4.442;2023-04-15T00:07:56;12.82;;;4.38;;
25922;SDS011;13725;51.170;4.442;2023-04-15T00:10:23;9.73;;;4.55;;
25922;SDS011;13725;51.170;4.442;2023-04-15T00:12:49;10.65;;;4.72;;
25922;SDS011;13725;51.170;4.442;2023-04-15T00:15:16;12.48;;;5.18;;
25922;SDS011;13725;51.170;4.442;2023-04-15T00:17:43;13.90;;;6.47;;
25922;SDS011;13725;51.170;4.442;2023-04-15T00:20:09;15.80;;;5.90;;
25922;SDS011;13725;51.170;4.442;2023-04-15T00:22:35;15.85;;;5.82;;
25922;SDS011;13725;51.170;4.442;2023-04-15T00:25:00;12.30;;;5.35;;
25922;SDS011;13725;51.170;4.442;2023-04-15T00:27:27;19.38;;;6.40;;
25922;SDS011;13725;51.170;4.442;2023-04-15T00:29:53;15.77;;;5.70;;
25922;SDS011;13725;51.170;4.442;2023-04-15T00:32:20;12.20;;;6.53;;
25922;SDS011;13725;51.170;4.442;2023-04-15T00:34:46;13.55;;;5.25;;
25922;SDS011;13725;51.170;4.442;2023-04-15T00:37:12;10.57;;;5.18;;
25922;SDS011;13725;51.170;4.442;2023-04-15T00:39:37;12.80;;;5.40;;
25922;SDS011;13725;51.170;4.442;2023-04-15T00:42:03;15.10;;;5.20;;
25922;SDS011;13725;51.170;4.442;2023-04-15T00:44:29;12.43;;;5.90;;
25922;SDS011;13725;51.170;4.442;2023-04-15T00:46:55;13.95;;;5.90;;
25922;SDS011;13725;51.170;4.442;2023-04-15T00:49:21;16.48;;;7.25;;
25922;SDS011;13725;51.170;4.442;2023-04-15T00:51:47;17.63;;;6.15;;
25922;SDS011;13725;51.170;4.442;2023-04-15T00:54:13;15.38;;;6.10;;
25922;SDS011;13725;51.170;4.442;2023-04-15T00:56:40;13.98;;;6.13;;
25922;SDS011;13725;51.170;4.442;2023-04-15T00:59:06;11.25;;;6.22;;
25922;SDS011;13725;51.170;4.442;2023-04-15T01:01:34;14.05;;;5.80;;
25922;SDS011;13725;51.170;4.442;2023-04-15T01:04:01;10.00;;;5.13;;
25922;SDS011;13725;51.170;4.442;2023-04-15T01:06:28;16.98;;;5.60;;
25922;SDS011;13725;51.170;4.442;2023-04-15T01:08:54;12.27;;;5.55;;
25922;SDS011;13725;51.170;4.442;2023-04-15T01:11:21;12.50;;;6.45;;
25922;SDS011;13725;51.170;4.442;2023-04-15T01:13:48;11.93;;;4.47;;
25922;SDS011;13725;51.170;4.442;2023-04-15T01:16:16;11.27;;;4.00;;
25922;SDS011;13725;51.170;4.442;2023-04-15T01:18:42;8.75;;;4.70;;
25922;SDS011;13725;51.170;4.442;2023-04-15T01:21:09;8.20;;;4.20;;
25922;SDS011;13725;51.170;4.442;2023-04-15T01:23:35;7.75;;;3.70;;
25922;SDS011;13725;51.170;4.442;2023-04-15T01:26:03;15.18;;;4.55;;
25922;SDS011;13725;51.170;4.442;2023-04-15T01:28:37;12.45;;;4.38;;
25922;SDS011;13725;51.170;4.442;2023-04-15T01:31:08;9.43;;;4.60;;
25922;SDS011;13725;51.170;4.442;2023-04-15T01:33:37;8.05;;;4.40;;
25922;SDS011;13725;51.170;4.442;2023-04-15T01:36:04;8.98;;;3.92;;
25922;SDS011;13725;51.170;4.442;2023-04-15T01:38:33;11.10;;;4.32;;
25922;SDS011;13725;51.170;4.442;2023-04-15T01:41:00;11.18;;;4.97;;
25922;SDS011;13725;51.170;4.442;2023-04-15T01:43:26;8.90;;;4.45;;
25922;SDS011;13725;51.170;4.442;2023-04-15T01:45:52;9.85;;;5.18;;
25922;SDS011;13725;51.170;4.442;2023-04-15T01:48:18;10.73;;;5.43;;
25922;SDS011;13725;51.170;4.442;2023-04-15T01:50:44;11.98;;;4.95;;
25922;SDS011;13725;51.170;4.442;2023-04-15T01:53:10;9.77;;;4.68;;
25922;SDS011;13725;51.170;4.442;2023-04-15T01:55:36;8.77;;;4.25;;
25922;SDS011;13725;51.170;4.442;2023-04-15T01:58:02;10.27;;;4.20;;
25922;SDS011;13725;51.170;4.442;2023-04-15T02:00:28;10.63;;;5.03;;
25922;SDS011;13725;51.170;4.442;2023-04-15T02:02:55;14.30;;;5.95;;
25922;SDS011;13725;51.170;4.442;2023-04-15T02:05:25;9.18;;;4.72;;
25922;SDS011;13725;51.170;4.442;2023-04-15T02:07:50;8.98;;;4.60;;
25922;SDS011;13725;51.170;4.442;2023-04-15T02:10:16;11.43;;;4.80;;
25922;SDS011;13725;51.170;4.442;2023-04-15T02:12:42;9.95;;;4.50;;
25922;SDS011;13725;51.170;4.442;2023-04-15T02:15:08;10.90;;;5.00;;
25922;SDS011;13725;51.170;4.442;2023-04-15T02:17:34;10.35;;;4.60;;
25922;SDS011;13725;51.170;4.442;2023-04-15T02:20:02;7.18;;;4.60;;
25922;SDS011;13725;51.170;4.442;2023-04-15T02:22:30;9.57;;;4.47;;
25922;SDS011;13725;51.170;4.442;2023-04-15T02:24:56;12.45;;;4.82;;
25922;SDS011;13725;51.170;4.442;2023-04-15T02:27:22;14.32;;;5.20;;
25922;SDS011;13725;51.170;4.442;2023-04-15T02:29:48;11.30;;;5.00;;
25922;SDS011;13725;51.170;4.442;2023-04-15T02:32:15;11.93;;;5.07;;
25922;SDS011;13725;51.170;4.442;2023-04-15T02:34:41;9.05;;;4.78;;
25922;SDS011;13725;51.170;4.442;2023-04-15T02:37:08;10.88;;;4.30;;
25922;SDS011;13725;51.170;4.442;2023-04-15T02:39:35;8.70;;;4.45;;
25922;SDS011;13725;51.170;4.442;2023-04-15T02:42:01;13.48;;;5.10;;
25922;SDS011;13725;51.170;4.442;2023-04-15T02:44:27;12.57;;;5.35;;
25922;SDS011;13725;51.170;4.442;2023-04-15T02:46:57;9.27;;;4.60;;
25922;SDS011;13725;51.170;4.442;2023-04-15T02:49:23;13.38;;;4.75;;
25922;SDS011;13725;51.170;4.442;2023-04-15T02:51:49;7.32;;;4.50;;
25922;SDS011;13725;51.170;4.442;2023-04-15T02:54:20;10.90;;;5.10;;
25922;SDS011;13725;51.170;4.442;2023-04-15T02:56:47;10.45;;;4.63;;
25922;SDS011;13725;51.170;4.442;2023-04-15T02:59:14;11.68;;;4.95;;
25922;SDS011;13725;51.170;4.442;2023-04-15T03:01:40;17.50;;;4.72;;
25922;SDS011;13725;51.170;4.442;2023-04-15T03:04:05;10.85;;;6.03;;
25922;SDS011;13725;51.170;4.442;2023-04-15T03:06:33;8.07;;;4.38;;
25922;SDS011;13725;51.170;4.442;2023-04-15T03:08:59;12.80;;;4.65;;
25922;SDS011;13725;51.170;4.442;2023-04-15T03:11:28;8.13;;;4.57;;
25922;SDS011;13725;51.170;4.442;2023-04-15T03:13:54;10.70;;;4.93;;
25922;SDS011;13725;51.170;4.442;2023-04-15T03:16:26;9.63;;;4.85;;
25922;SDS011;13725;51.170;4.442;2023-04-15T03:18:52;11.68;;;4.45;;
25922;SDS011;13725;51.170;4.442;2023-04-15T03:21:20;10.32;;;5.22;;
25922;SDS011;13725;51.170;4.442;2023-04-15T03:23:48;13.70;;;4.75;;
25922;SDS011;13725;51.170;4.442;2023-04-15T03:26:26;12.63;;;5.47;;
25922;SDS011;13725;51.170;4.442;2023-04-15T03:29:01;17.02;;;5.28;;
25922;SDS011;13725;51.170;4.442;2023-04-15T03:31:27;13.93;;;4.93;;
25922;SDS011;13725;51.170;4.442;2023-04-15T03:33:52;11.30;;;4.63;;
25922;SDS011;13725;51.170;4.442;2023-04-15T03:36:18;9.93;;;4.95;;
25922;SDS011;13725;51.170;4.442;2023-04-15T03:38:44;10.75;;;5.13;;
25922;SDS011;13725;51.170;4.442;2023-04-15T03:41:10;10.70;;;4.88;;
25922;SDS011;13725;51.170;4.442;2023-04-15T03:43:36;8.75;;;4.35;;
25922;SDS011;13725;51.170;4.442;2023-04-15T03:46:01;10.38;;;4.82;;
25922;SDS011;13725;51.170;4.442;2023-04-15T03:48:27;12.88;;;4.90;;
25922;SDS011;13725;51.170;4.442;2023-04-15T03:50:53;9.27;;;4.28;;
25922;SDS011;13725;51.170;4.442;2023-04-15T03:53:19;11.65;;;4.70;;
25922;SDS011;13725;51.170;4.442;2023-04-15T03:55:45;13.63;;;5.32;;
25922;SDS011;13725;51.170;4.442;2023-04-15T03:58:11;13.27;;;4.50;;
25922;SDS011;13725;51.170;4.442;2023-04-15T04:00:38;8.55;;;4.00;;
25922;SDS011;13725;51.170;4.442;2023-04-15T04:03:04;15.63;;;5.70;;
25922;SDS011;13725;51.170;4.442;2023-04-15T04:05:29;11.88;;;4.70;;
25922;SDS011;13725;51.170;4.442;2023-04-15T04:07:55;10.40;;;4.57;;
25922;SDS011;13725;51.170;4.442;2023-04-15T04:10:21;10.18;;;4.85;;
25922;SDS011;13725;51.170;4.442;2023-04-15T04:12:47;9.15;;;4.60;;
25922;SDS011;13725;51.170;4.442;2023-04-15T04:15:12;15.63;;;5.35;;
25922;SDS011;13725;51.170;4.442;2023-04-15T04:17:38;12.98;;;5.50;;
25922;SDS011;13725;51.170;4.442;2023-04-15T04:20:04;18.27;;;5.82;;
25922;SDS011;13725;51.170;4.442;2023-04-15T04:22:30;23.50;;;8.05;;
25922;SDS011;13725;51.170;4.442;2023-04-15T04:24:56;12.52;;;5.60;;
25922;SDS011;13725;51.170;4.442;2023-04-15T04:27:23;10.55;;;5.07;;
25922;SDS011;13725;51.170;4.442;2023-04-15T04:29:50;9.73;;;4.93;;
25922;SDS011;13725;51.170;4.442;2023-04-15T04:32:15;7.78;;;5.13;;
25922;SDS011;13725;51.170;4.442;2023-04-15T04:34:41;10.88;;;5.30;;
25922;SDS011;13725;51.170;4.442;2023-04-15T04:37:07;10.27;;;5.10;;
25922;SDS011;13725;51.170;4.442;2023-04-15T04:39:33;8.45;;;4.88;;
25922;SDS011;13725;51.170;4.442;2023-04-15T04:41:58;10.70;;;5.50;;
25922;SDS011;13725;51.170;4.442;2023-04-15T04:44:25;12.30;;;5.63;;
25922;SDS011;13725;51.170;4.442;2023-04-15T04:46:51;11.20;;;5.55;;
25922;SDS011;13725;51.170;4.442;2023-04-15T04:49:17;9.65;;;4.85;;
25922;SDS011;13725;51.170;4.442;2023-04-15T04:51:42;8.60;;;6.30;;
25922;SDS011;13725;51.170;4.442;2023-04-15T04:54:08;13.20;;;6.18;;
25922;SDS011;13725;51.170;4.442;2023-04-15T04:56:35;11.75;;;5.53;;
25922;SDS011;13725;51.170;4.442;2023-04-15T04:59:02;13.63;;;6.28;;
25922;SDS011;13725;51.170;4.442;2023-04-15T05:01:28;12.82;;;5.80;;
25922;SDS011;13725;51.170;4.442;2023-04-15T05:03:54;21.08;;;6.63;;
25922;SDS011;13725;51.170;4.442;2023-04-15T05:06:20;11.93;;;5.55;;
25922;SDS011;13725;51.170;4.442;2023-04-15T05:08:46;13.63;;;5.60;;
25922;SDS011;13725;51.170;4.442;2023-04-15T05:11:12;15.90;;;6.35;;
25922;SDS011;13725;51.170;4.442;2023-04-15T05:13:38;15.23;;;6.03;;
25922;SDS011;13725;51.170;4.442;2023-04-15T05:16:04;10.73;;;5.93;;
25922;SDS011;13725;51.170;4.442;2023-04-15T05:18:30;10.95;;;5.90;;
25922;SDS011;13725;51.170;4.442;2023-04-15T05:20:56;16.23;;;6.03;;
25922;SDS011;13725;51.170;4.442;2023-04-15T05:23:22;17.92;;;6.45;;
25922;SDS011;13725;51.170;4.442;2023-04-15T05:25:48;11.25;;;5.93;;
25922;SDS011;13725;51.170;4.442;2023-04-15T05:28:13;15.15;;;7.10;;
25922;SDS011;13725;51.170;4.442;2023-04-15T05:30:39;12.52;;;6.22;;
25922;SDS011;13725;51.170;4.442;2023-04-15T05:33:05;15.05;;;6.85;;
25922;SDS011;13725;51.170;4.442;2023-04-15T05:35:31;12.43;;;7.88;;
25922;SDS011;13725;51.170;4.442;2023-04-15T05:37:57;11.95;;;6.75;;
25922;SDS011;13725;51.170;4.442;2023-04-15T05:40:22;11.27;;;6.93;;
25922;SDS011;13725;51.170;4.442;2023-04-15T05:42:48;14.85;;;7.38;;
25922;SDS011;13725;51.170;4.442;2023-04-15T05:45:14;17.73;;;7.30;;
25922;SDS011;13725;51.170;4.442;2023-04-15T05:47:39;17.65;;;7.97;;
25922;SDS011;13725;51.170;4.442;2023-04-15T05:50:05;17.40;;;7.90;;
25922;SDS011;13725;51.170;4.442;2023-04-15T05:52:32;11.98;;;7.30;;
25922;SDS011;13725;51.170;4.442;2023-04-15T05:54:58;13.63;;;8.15;;
25922;SDS011;13725;51.170;4.442;2023-04-15T05:57:23;19.52;;;7.97;;
25922;SDS011;13725;51.170;4.442;2023-04-15T05:59:49;13.07;;;7.50;;
25922;SDS011;13725;51.170;4.442;2023-04-15T06:02:17;17.13;;;7.72;;
25922;SDS011;13725;51.170;4.442;2023-04-15T06:04:43;18.30;;;8.95;;
25922;SDS011;13725;51.170;4.442;2023-04-15T06:07:09;21.08;;;9.07;;
25922;SDS011;13725;51.170;4.442;2023-04-15T06:09:35;17.88;;;8.82;;
25922;SDS011;13725;51.170;4.442;2023-04-15T06:12:00;20.52;;;8.73;;
25922;SDS011;13725;51.170;4.442;2023-04-15T06:14:27;17.65;;;9.77;;
25922;SDS011;13725;51.170;4.442;2023-04-15T06:16:52;16.33;;;9.65;;
25922;SDS011;13725;51.170;4.442;2023-04-15T06:19:18;24.33;;;10.65;;
25922;SDS011;13725;51.170;4.442;2023-04-15T06:21:44;17.05;;;9.85;;
25922;SDS011;13725;51.170;4.442;2023-04-15T06:24:10;19.27;;;10.40;;
25922;SDS011;13725;51.170;4.442;2023-04-15T06:26:36;17.73;;;10.48;;
25922;SDS011;13725;51.170;4.442;2023-04-15T06:29:02;20.05;;;10.80;;
25922;SDS011;13725;51.170;4.442;2023-04-15T06:31:28;23.08;;;11.15;;
25922;SDS011;13725;51.170;4.442;2023-04-15T06:33:54;16.20;;;10.05;;
25922;SDS011;13725;51.170;4.442;2023-04-15T06:36:20;18.83;;;11.48;;
25922;SDS011;13725;51.170;4.442;2023-04-15T06:38:46;22.85;;;11.57;;
25922;SDS011;13725;51.170;4.442;2023-04-15T06:41:11;17.83;;;10.57;;
25922;SDS011;13725;51.170;4.442;2023-04-15T06:43:38;17.73;;;10.63;;
25922;SDS011;13725;51.170;4.442;2023-04-15T06:46:04;17.02;;;10.38;;
25922;SDS011;13725;51.170;4.442;2023-04-15T06:48:29;22.58;;;10.52;;
25922;SDS011;13725;51.170;4.442;2023-04-15T06:50:55;18.55;;;11.43;;
25922;SDS011;13725;51.170;4.442;2023-04-15T06:53:23;22.50;;;11.23;;
25922;SDS011;13725;51.170;4.442;2023-04-15T06:55:55;19.00;;;9.73;;
25922;SDS011;13725;51.170;4.442;2023-04-15T06:58:21;21.05;;;10.40;;
25922;SDS011;13725;51.170;4.442;2023-04-15T07:00:47;18.48;;;10.15;;
25922;SDS011;13725;51.170;4.442;2023-04-15T07:03:13;16.95;;;9.27;;
25922;SDS011;13725;51.170;4.442;2023-04-15T07:05:39;15.93;;;9.48;;
25922;SDS011;13725;51.170;4.442;2023-04-15T07:08:05;16.42;;;9.55;;
25922;SDS011;13725;51.170;4.442;2023-04-15T07:10:34;17.05;;;10.02;;
25922;SDS011;13725;51.170;4.442;2023-04-15T07:13:01;17.75;;;9.85;;
25922;SDS011;13725;51.170;4.442;2023-04-15T07:15:26;20.90;;;9.98;;
25922;SDS011;13725;51.170;4.442;2023-04-15T07:17:52;15.32;;;9.50;;
25922;SDS011;13725;51.170;4.442;2023-04-15T07:20:18;21.65;;;10.00;;
25922;SDS011;13725;51.170;4.442;2023-04-15T07:22:44;14.32;;;9.38;;
25922;SDS011;13725;51.170;4.442;2023-04-15T07:25:10;17.95;;;8.80;;
25922;SDS011;13725;51.170;4.442;2023-04-15T07:27:35;14.70;;;8.38;;
25922;SDS011;13725;51.170;4.442;2023-04-15T07:30:01;17.35;;;8.48;;
25922;SDS011;13725;51.170;4.442;2023-04-15T07:32:27;13.68;;;8.80;;
25922;SDS011;13725;51.170;4.442;2023-04-15T07:34:52;15.48;;;8.18;;
25922;SDS011;13725;51.170;4.442;2023-04-15T07:37:18;14.40;;;8.25;;
25922;SDS011;13725;51.170;4.442;2023-04-15T07:39:44;13.77;;;7.78;;
25922;SDS011;13725;51.170;4.442;2023-04-15T07:42:10;11.13;;;7.30;;
25922;SDS011;13725;51.170;4.442;2023-04-15T07:44:35;14.57;;;7.57;;
25922;SDS011;13725;51.170;4.442;2023-04-15T07:47:01;9.88;;;7.22;;
25922;SDS011;13725;51.170;4.442;2023-04-15T07:49:28;8.80;;;6.50;;
25922;SDS011;13725;51.170;4.442;2023-04-15T07:51:54;11.55;;;6.43;;
25922;SDS011;13725;51.170;4.442;2023-04-15T07:54:21;12.05;;;6.88;;
25922;SDS011;13725;51.170;4.442;2023-04-15T07:56:47;13.00;;;6.28;;
25922;SDS011;13725;51.170;4.442;2023-04-15T07:59:13;9.63;;;6.32;;
25922;SDS011;13725;51.170;4.442;2023-04-15T08:01:42;9.75;;;6.38;;
25922;SDS011;13725;51.170;4.442;2023-04-15T08:04:08;9.07;;;5.93;;
25922;SDS011;13725;51.170;4.442;2023-04-15T08:06:34;8.85;;;6.13;;
25922;SDS011;13725;51.170;4.442;2023-04-15T08:09:00;7.18;;;5.93;;
25922;SDS011;13725;51.170;4.442;2023-04-15T08:11:26;9.98;;;5.88;;
25922;SDS011;13725;51.170;4.442;2023-04-15T08:13:52;8.52;;;5.70;;
25922;SDS011;13725;51.170;4.442;2023-04-15T08:16:21;10.05;;;6.32;;
25922;SDS011;13725;51.170;4.442;2023-04-15T08:18:49;13.02;;;6.30;;
25922;SDS011;13725;51.170;4.442;2023-04-15T08:21:17;9.35;;;5.90;;
25922;SDS011;13725;51.170;4.442;2023-04-15T08:23:44;10.25;;;5.97;;
25922;SDS011;13725;51.170;4.442;2023-04-15T08:26:11;8.27;;;5.78;;
25922;SDS011;13725;51.170;4.442;2023-04-15T08:28:37;9.07;;;5.53;;
25922;SDS011;13725;51.170;4.442;2023-04-15T08:31:06;9.45;;;5.85;;
25922;SDS011;13725;51.170;4.442;2023-04-15T08:33:32;12.55;;;6.30;;
25922;SDS011;13725;51.170;4.442;2023-04-15T08:35:58;8.77;;;6.70;;
25922;SDS011;13725;51.170;4.442;2023-04-15T08:38:24;12.10;;;6.20;;
25922;SDS011;13725;51.170;4.442;2023-04-15T08:40:50;8.63;;;5.93;;
25922;SDS011;13725;51.170;4.442;2023-04-15T08:43:22;7.88;;;5.60;;
25922;SDS011;13725;51.170;4.442;2023-04-15T08:45:53;7.15;;;5.00;;
25922;SDS011;13725;51.170;4.442;2023-04-15T08:48:19;5.95;;;4.75;;
25922;SDS011;13725;51.170;4.442;2023-04-15T08:50:45;8.23;;;5.20;;
25922;SDS011;13725;51.170;4.442;2023-04-15T08:53:13;9.10;;;5.65;;
25922;SDS011;13725;51.170;4.442;2023-04-15T08:55:43;6.78;;;5.18;;
25922;SDS011;13725;51.170;4.442;2023-04-15T08:58:10;5.60;;;5.00;;
25922;SDS011;13725;51.170;4.442;2023-04-15T09:00:37;8.02;;;5.38;;
25922;SDS011;13725;51.170;4.442;2023-04-15T09:03:04;6.78;;;4.80;;
25922;SDS011;13725;51.170;4.442;2023-04-15T09:05:36;6.10;;;4.88;;
25922;SDS011;13725;51.170;4.442;2023-04-15T09:08:02;7.25;;;5.20;;
25922;SDS011;13725;51.170;4.442;2023-04-15T09:10:29;5.43;;;4.60;;
25922;SDS011;13725;51.170;4.442;2023-04-15T09:12:57;5.40;;;4.25;;
25922;SDS011;13725;51.170;4.442;2023-04-15T09:15:26;6.07;;;4.55;;
25922;SDS011;13725;51.170;4.442;2023-04-15T09:17:55;7.47;;;5.05;;
25922;SDS011;13725;51.170;4.442;2023-04-15T09:20:21;7.40;;;4.63;;
25922;SDS011;13725;51.170;4.442;2023-04-15T09:22:47;6.60;;;4.40;;
25922;SDS011;13725;51.170;4.442;2023-04-15T09:27:48;7.03;;;5.03;;
25922;SDS011;13725;51.170;4.442;2023-04-15T09:32:50;7.35;;;4.47;;
25922;SDS011;13725;51.170;4.442;2023-04-15T09:35:18;5.13;;;3.58;;
25922;SDS011;13725;51.170;4.442;2023-04-15T09:37:44;5.32;;;3.58;;
25922;SDS011;13725;51.170;4.442;2023-04-15T09:40:10;5.18;;;3.92;;
25922;SDS011;13725;51.170;4.442;2023-04-15T09:42:39;8.05;;;4.05;;
25922;SDS011;13725;51.170;4.442;2023-04-15T09:45:19;5.88;;;3.33;;
25922;SDS011;13725;51.170;4.442;2023-04-15T09:47:46;5.65;;;3.42;;
25922;SDS011;13725;51.170;4.442;2023-04-15T09:50:11;4.72;;;3.28;;
25922;SDS011;13725;51.170;4.442;2023-04-15T09:52:42;5.95;;;3.80;;
25922;SDS011;13725;51.170;4.442;2023-04-15T09:55:09;4.60;;;2.97;;
25922;SDS011;13725;51.170;4.442;2023-04-15T09:57:35;6.07;;;3.60;;
25922;SDS011;13725;51.170;4.442;2023-04-15T10:00:02;4.40;;;3.05;;
25922;SDS011;13725;51.170;4.442;2023-04-15T10:02:31;6.25;;;3.25;;
25922;SDS011;13725;51.170;4.442;2023-04-15T10:04:58;4.30;;;2.97;;
25922;SDS011;13725;51.170;4.442;2023-04-15T10:07:25;7.10;;;3.67;;
25922;SDS011;13725;51.170;4.442;2023-04-15T10:09:51;4.30;;;2.97;;
25922;SDS011;13725;51.170;4.442;2023-04-15T10:12:17;5.38;;;3.20;;
25922;SDS011;13725;51.170;4.442;2023-04-15T10:14:44;3.60;;;3.20;;
25922;SDS011;13725;51.170;4.442;2023-04-15T10:17:13;4.85;;;3.08;;
25922;SDS011;13725;51.170;4.442;2023-04-15T10:19:42;4.05;;;3.15;;
25922;SDS011;13725;51.170;4.442;2023-04-15T10:22:09;4.20;;;3.35;;
25922;SDS011;13725;51.170;4.442;2023-04-15T10:24:35;4.57;;;3.00;;
25922;SDS011;13725;51.170;4.442;2023-04-15T10:27:03;3.58;;;2.42;;
25922;SDS011;13725;51.170;4.442;2023-04-15T10:29:30;2.92;;;2.58;;
25922;SDS011;13725;51.170;4.442;2023-04-15T10:31:56;4.70;;;2.42;;
25922;SDS011;13725;51.170;4.442;2023-04-15T10:34:24;4.22;;;2.53;;
25922;SDS011;13725;51.170;4.442;2023-04-15T10:36:50;3.75;;;3.10;;
25922;SDS011;13725;51.170;4.442;2023-04-15T10:42:05;6.30;;;3.17;;
25922;SDS011;13725;51.170;4.442;2023-04-15T10:44:32;4.88;;;2.97;;
25922;SDS011;13725;51.170;4.442;2023-04-15T10:46:58;4.03;;;3.20;;
25922;SDS011;13725;51.170;4.442;2023-04-15T10:49:24;6.25;;;3.60;;
25922;SDS011;13725;51.170;4.442;2023-04-15T10:51:51;4.88;;;2.90;;
25922;SDS011;13725;51.170;4.442;2023-04-15T10:59:31;4.15;;;2.55;;
25922;SDS011;13725;51.170;4.442;2023-04-15T11:02:16;4.88;;;3.10;;
25922;SDS011;13725;51.170;4.442;2023-04-15T11:04:54;3.78;;;2.70;;
25922;SDS011;13725;51.170;4.442;2023-04-15T11:12:55;4.78;;;2.88;;
25922;SDS011;13725;51.170;4.442;2023-04-15T11:15:41;3.90;;;3.45;;
25922;SDS011;13725;51.170;4.442;2023-04-15T11:18:11;4.53;;;2.88;;
25922;SDS011;13725;51.170;4.442;2023-04-15T11:20:39;4.57;;;2.90;;
25922;SDS011;13725;51.170;4.442;2023-04-15T11:23:07;4.30;;;3.00;;
25922;SDS011;13725;51.170;4.442;2023-04-15T11:25:34;3.53;;;3.20;;
25922;SDS011;13725;51.170;4.442;2023-04-15T11:28:03;3.03;;;2.25;;
25922;SDS011;13725;51.170;4.442;2023-04-15T11:30:31;4.55;;;2.67;;
25922;SDS011;13725;51.170;4.442;2023-04-15T11:32:59;3.60;;;2.72;;
25922;SDS011;13725;51.170;4.442;2023-04-15T11:35:26;3.05;;;2.60;;
25922;SDS011;13725;51.170;4.442;2023-04-15T11:37:54;5.63;;;2.92;;
25922;SDS011;13725;51.170;4.442;2023-04-15T11:40:24;3.20;;;2.80;;
25922;SDS011;13725;51.170;4.442;2023-04-15T11:43:02;1.95;;;1.80;;
25922;SDS011;13725;51.170;4.442;2023-04-15T11:48:08;5.85;;;1.85;;
25922;SDS011;13725;51.170;4.442;2023-04-15T11:50:35;4.43;;;2.42;;
25922;SDS011;13725;51.170;4.442;2023-04-15T11:53:04;3.30;;;2.38;;
25922;SDS011;13725;51.170;4.442;2023-04-15T11:55:40;3.28;;;2.50;;
25922;SDS011;13725;51.170;4.442;2023-04-15T12:00:44;3.58;;;2.58;;
25922;SDS011;13725;51.170;4.442;2023-04-15T12:03:18;2.72;;;2.30;;
25922;SDS011;13725;51.170;4.442;2023-04-15T12:06:07;2.95;;;2.13;;
25922;SDS011;13725;51.170;4.442;2023-04-15T12:11:32;6.68;;;3.05;;
25922;SDS011;13725;51.170;4.442;2023-04-15T12:16:54;4.43;;;2.72;;
25922;SDS011;13725;51.170;4.442;2023-04-15T12:19:25;8.05;;;2.53;;
25922;SDS011;13725;51.170;4.442;2023-04-15T12:21:56;3.75;;;2.30;;
25922;SDS011;13725;51.170;4.442;2023-04-15T12:24:41;4.25;;;2.30;;
25922;SDS011;13725;51.170;4.442;2023-04-15T12:27:12;3.10;;;1.70;;
25922;SDS011;13725;51.170;4.442;2023-04-15T12:29:39;3.25;;;2.17;;
25922;SDS011;13725;51.170;4.442;2023-04-15T12:32:13;2.75;;;2.03;;
25922;SDS011;13725;51.170;4.442;2023-04-15T12:34:44;3.88;;;2.03;;
25922;SDS011;13725;51.170;4.442;2023-04-15T12:37:15;4.28;;;2.10;;
25922;SDS011;13725;51.170;4.442;2023-04-15T12:39:41;2.63;;;1.83;;
25922;SDS011;13725;51.170;4.442;2023-04-15T12:42:09;3.10;;;2.03;;
25922;SDS011;13725;51.170;4.442;2023-04-15T12:44:36;5.93;;;2.15;;
25922;SDS011;13725;51.170;4.442;2023-04-15T12:47:03;3.65;;;1.98;;
25922;SDS011;13725;51.170;4.442;2023-04-15T12:49:29;3.50;;;2.28;;
25922;SDS011;13725;51.170;4.442;2023-04-15T12:51:56;3.55;;;2.13;;
25922;SDS011;13725;51.170;4.442;2023-04-15T12:54:26;2.95;;;1.70;;
25922;SDS011;13725;51.170;4.442;2023-04-15T12:56:52;4.47;;;1.60;;
25922;SDS011;13725;51.170;4.442;2023-04-15T12:59:19;4.00;;;1.40;;
25922;SDS011;13725;51.170;4.442;2023-04-15T13:01:46;2.92;;;1.92;;
25922;SDS011;13725;51.170;4.442;2023-04-15T13:04:12;3.35;;;1.90;;
25922;SDS011;13725;51.170;4.442;2023-04-15T13:06:38;3.42;;;1.70;;
25922;SDS011;13725;51.170;4.442;2023-04-15T13:09:04;4.88;;;1.83;;
25922;SDS011;13725;51.170;4.442;2023-04-15T13:11:30;3.25;;;1.85;;
25922;SDS011;13725;51.170;4.442;2023-04-15T13:13:59;5.57;;;1.90;;
25922;SDS011;13725;51.170;4.442;2023-04-15T13:16:26;2.42;;;2.00;;
25922;SDS011;13725;51.170;4.442;2023-04-15T13:18:52;4.55;;;2.53;;
25922;SDS011;13725;51.170;4.442;2023-04-15T13:21:18;6.38;;;2.13;;
25922;SDS011;13725;51.170;4.442;2023-04-15T13:23:44;2.88;;;1.20;;
25922;SDS011;13725;51.170;4.442;2023-04-15T13:26:10;2.63;;;1.20;;
25922;SDS011;13725;51.170;4.442;2023-04-15T13:28:35;1.83;;;0.82;;
25922;SDS011;13725;51.170;4.442;2023-04-15T13:31:02;2.28;;;1.00;;
25922;SDS011;13725;51.170;4.442;2023-04-15T13:33:27;3.97;;;0.70;;
25922;SDS011;13725;51.170;4.442;2023-04-15T13:35:53;1.23;;;0.60;;
25922;SDS011;13725;51.170;4.442;2023-04-15T13:38:19;1.33;;;0.70;;
25922;SDS011;13725;51.170;4.442;2023-04-15T13:40:44;2.67;;;0.52;;
25922;SDS011;13725;51.170;4.442;2023-04-15T13:43:10;2.17;;;0.90;;
25922;SDS011;13725;51.170;4.442;2023-04-15T13:45:36;2.60;;;0.90;;
25922;SDS011;13725;51.170;4.442;2023-04-15T13:48:02;2.92;;;1.05;;
25922;SDS011;13725;51.170;4.442;2023-04-15T13:50:28;1.65;;;1.00;;
25922;SDS011;13725;51.170;4.442;2023-04-15T13:52:54;2.85;;;1.33;;
25922;SDS011;13725;51.170;4.442;2023-04-15T13:55:20;3.22;;;1.17;;
25922;SDS011;13725;51.170;4.442;2023-04-15T13:57:47;1.60;;;1.10;;
25922;SDS011;13725;51.170;4.442;2023-04-15T14:00:13;2.22;;;1.42;;
25922;SDS011;13725;51.170;4.442;2023-04-15T14:02:39;4.45;;;1.40;;
25922;SDS011;13725;51.170;4.442;2023-04-15T14:05:06;2.00;;;1.60;;
25922;SDS011;13725;51.170;4.442;2023-04-15T14:07:32;3.40;;;1.73;;
25922;SDS011;13725;51.170;4.442;2023-04-15T14:09:58;3.20;;;1.70;;
25922;SDS011;13725;51.170;4.442;2023-04-15T14:12:24;2.63;;;1.67;;
25922;SDS011;13725;51.170;4.442;2023-04-15T14:14:50;5.57;;;1.85;;
25922;SDS011;13725;51.170;4.442;2023-04-15T14:17:16;3.17;;;2.10;;
25922;SDS011;13725;51.170;4.442;2023-04-15T14:19:41;4.20;;;1.95;;
25922;SDS011;13725;51.170;4.442;2023-04-15T14:22:07;6.22;;;2.00;;
25922;SDS011;13725;51.170;4.442;2023-04-15T14:24:33;2.72;;;1.80;;
25922;SDS011;13725;51.170;4.442;2023-04-15T14:26:58;3.97;;;1.70;;
25922;SDS011;13725;51.170;4.442;2023-04-15T14:29:26;3.60;;;2.05;;
25922;SDS011;13725;51.170;4.442;2023-04-15T14:31:52;5.32;;;2.10;;
25922;SDS011;13725;51.170;4.442;2023-04-15T14:34:18;4.93;;;2.42;;
25922;SDS011;13725;51.170;4.442;2023-04-15T14:36:46;3.35;;;2.35;;
25922;SDS011;13725;51.170;4.442;2023-04-15T14:39:12;2.80;;;2.15;;
25922;SDS011;13725;51.170;4.442;2023-04-15T14:41:38;3.60;;;2.20;;
25922;SDS011;13725;51.170;4.442;2023-04-15T14:44:04;4.35;;;2.22;;
25922;SDS011;13725;51.170;4.442;2023-04-15T14:46:29;6.82;;;2.47;;
25922;SDS011;13725;51.170;4.442;2023-04-15T14:48:55;3.10;;;1.65;;
25922;SDS011;13725;51.170;4.442;2023-04-15T14:51:21;3.88;;;1.80;;
25922;SDS011;13725;51.170;4.442;2023-04-15T14:53:47;4.70;;;1.88;;
25922;SDS011;13725;51.170;4.442;2023-04-15T14:56:13;3.40;;;1.73;;
25922;SDS011;13725;51.170;4.442;2023-04-15T14:58:38;3.78;;;1.60;;
25922;SDS011;13725;51.170;4.442;2023-04-15T15:01:04;4.78;;;1.75;;
25922;SDS011;13725;51.170;4.442;2023-04-15T15:03:30;5.32;;;2.33;;
25922;SDS011;13725;51.170;4.442;2023-04-15T15:05:56;5.13;;;1.88;;
25922;SDS011;13725;51.170;4.442;2023-04-15T15:08:22;3.35;;;2.00;;